createdAt,value
2018-05-08T00:01:38.630Z,44.80
2018-05-08T00:05:41.120Z,44.79
2018-05-08T00:09:43.569Z,45.11
2018-05-08T00:13:46.046Z,44.94
2018-05-08T00:17:48.508Z,44.96
2018-05-08T00:21:50.994Z,44.89
2018-05-08T00:25:53.434Z,45.24
2018-05-08T00:29:55.904Z,45.41
2018-05-08T00:33:58.369Z,45.36
2018-05-08T00:38:00.855Z,45.26
2018-05-08T00:42:03.314Z,45.41
2018-05-08T00:46:05.807Z,45.60
2018-05-08T00:50:08.286Z,45.74
2018-05-08T00:54:10.771Z,45.80
2018-05-08T00:58:13.254Z,45.72
2018-05-08T01:02:15.699Z,45.63
2018-05-08T01:06:18.178Z,45.51
2018-05-08T01:10:20.676Z,45.63
2018-05-08T01:14:23.134Z,45.76
2018-05-08T01:18:25.615Z,45.97
2018-05-08T01:22:28.093Z,45.95
2018-05-08T01:26:30.581Z,45.94
2018-05-08T01:30:33.026Z,46.09
2018-05-08T01:34:35.510Z,46.23
2018-05-08T01:38:38.003Z,46.45
2018-05-08T01:42:40.459Z,46.58
2018-05-08T01:46:42.935Z,46.62
2018-05-08T01:50:45.410Z,46.77
2018-05-08T01:54:47.887Z,46.64
2018-05-08T01:58:50.369Z,46.72
2018-05-08T02:02:52.847Z,46.83
2018-05-08T02:06:55.327Z,46.86
2018-05-08T02:10:57.775Z,47.14
2018-05-08T02:15:00.260Z,47.12
2018-05-08T02:19:02.715Z,47.53
2018-05-08T02:23:05.244Z,47.63
2018-05-08T02:27:07.722Z,47.58
2018-05-08T02:31:10.212Z,47.75
2018-05-08T02:35:12.703Z,47.67
2018-05-08T02:39:15.154Z,47.74
2018-05-08T02:43:17.679Z,47.76
2018-05-08T02:47:20.175Z,48.05
2018-05-08T02:51:22.647Z,47.95
2018-05-08T02:55:25.149Z,48.18
2018-05-08T02:59:27.603Z,48.37
2018-05-08T03:03:30.089Z,48.48
2018-05-08T03:07:32.596Z,48.50
2018-05-08T03:11:35.052Z,48.67
2018-05-08T03:15:37.563Z,48.84
2018-05-08T03:19:40.017Z,48.85
2018-05-08T03:23:42.508Z,49.06
2018-05-08T03:27:44.986Z,49.16
2018-05-08T03:31:47.450Z,48.99
2018-05-08T03:35:49.935Z,48.75
2018-05-08T03:39:52.384Z,48.97
2018-05-08T03:43:54.859Z,49.28
2018-05-08T03:47:57.345Z,49.45
2018-05-08T03:51:59.839Z,49.77
2018-05-08T03:56:02.315Z,49.92
2018-05-08T04:00:04.793Z,50.06
2018-05-08T04:04:19.245Z,50.08
2018-05-08T04:08:31.293Z,50.31
2018-05-08T04:12:33.783Z,50.50
2018-05-08T04:16:36.275Z,50.36
2018-05-08T04:20:38.901Z,50.78
2018-05-08T04:24:41.548Z,50.95
2018-05-08T04:28:44.110Z,50.99
2018-05-08T04:32:46.640Z,51.05
2018-05-08T04:36:49.247Z,51.19
2018-05-08T04:41:01.981Z,50.96
2018-05-08T04:45:04.479Z,50.91
2018-05-08T04:49:06.938Z,51.05
2018-05-08T04:53:09.424Z,51.03
2018-05-08T04:57:11.906Z,50.99
2018-05-08T05:01:14.371Z,51.07
2018-05-08T05:05:16.847Z,50.93
2018-05-08T05:09:19.340Z,50.18
2018-05-08T05:13:21.829Z,50.15
2018-05-08T05:17:24.314Z,49.78
2018-05-08T05:21:26.778Z,49.00
2018-05-08T05:25:29.263Z,48.56
2018-05-08T05:29:31.735Z,48.15
2018-05-08T05:33:34.214Z,47.70
2018-05-08T05:37:36.696Z,47.44
2018-05-08T05:41:39.175Z,47.36
2018-05-08T05:45:41.629Z,47.23
2018-05-08T05:49:44.102Z,47.08
2018-05-08T05:53:46.551Z,47.83
2018-05-08T05:57:49.060Z,47.44
2018-05-08T06:01:51.570Z,46.94
2018-05-08T06:05:54.055Z,46.23
2018-05-08T06:09:56.516Z,45.36
2018-05-08T06:13:59.001Z,45.57
2018-05-08T06:18:01.492Z,44.66
2018-05-08T06:22:03.990Z,44.48
2018-05-08T06:26:06.470Z,43.33
2018-05-08T06:30:08.956Z,43.78
2018-05-08T06:34:11.442Z,42.59
2018-05-08T06:38:13.923Z,43.16
2018-05-08T06:42:16.412Z,42.59
2018-05-08T06:46:18.921Z,42.42
2018-05-08T06:50:21.377Z,43.05
2018-05-08T06:54:23.864Z,43.45
2018-05-08T06:58:26.351Z,43.63
2018-05-08T07:02:28.837Z,44.17
2018-05-08T07:06:31.278Z,44.56
2018-05-08T07:10:33.759Z,45.05
2018-05-08T07:14:36.247Z,44.71
2018-05-08T07:18:38.726Z,44.96
2018-05-08T07:22:41.214Z,44.64
2018-05-08T07:26:43.695Z,44.47
2018-05-08T07:30:46.225Z,44.19
2018-05-08T07:34:48.687Z,44.23
2018-05-08T07:38:51.163Z,43.17
2018-05-08T07:42:53.638Z,43.28
2018-05-08T07:46:56.099Z,43.30
2018-05-08T07:50:58.586Z,43.28
2018-05-08T07:55:01.079Z,43.87
2018-05-08T07:59:03.545Z,43.99
2018-05-08T08:03:06.031Z,44.12
2018-05-08T08:07:08.501Z,43.67
2018-05-08T08:11:10.950Z,44.40
2018-05-08T08:15:13.419Z,44.54
2018-05-08T08:19:15.895Z,44.45
2018-05-08T08:23:18.361Z,44.33
2018-05-08T08:27:20.834Z,44.23
2018-05-08T08:31:23.303Z,44.67
2018-05-08T08:35:25.757Z,44.42
2018-05-08T08:39:28.246Z,45.12
2018-05-08T08:43:30.736Z,45.09
2018-05-08T08:47:33.195Z,44.49
2018-05-08T08:51:35.687Z,45.05
2018-05-08T08:55:38.178Z,44.58
2018-05-08T08:59:40.655Z,43.88
2018-05-08T09:03:43.154Z,43.05
2018-05-08T09:07:45.617Z,43.14
2018-05-08T09:11:48.097Z,42.96
2018-05-08T09:15:50.570Z,42.28
2018-05-08T09:19:53.023Z,41.80
2018-05-08T09:23:55.506Z,42.19
2018-05-08T09:27:57.980Z,41.42
2018-05-08T09:32:00.463Z,41.19
2018-05-08T09:36:02.949Z,41.32
2018-05-08T09:40:05.432Z,40.92
2018-05-08T09:44:07.908Z,41.61
2018-05-08T09:48:10.383Z,41.50
2018-05-08T09:52:12.866Z,41.83
2018-05-08T09:56:15.343Z,39.87
2018-05-08T10:00:17.796Z,40.51
2018-05-08T10:04:20.275Z,39.31
2018-05-08T10:08:22.750Z,39.74
2018-05-08T10:12:25.236Z,38.42
2018-05-08T10:16:27.695Z,37.92
2018-05-08T10:20:30.229Z,38.22
2018-05-08T10:24:32.672Z,37.59
2018-05-08T10:28:35.147Z,38.75
2018-05-08T10:32:37.596Z,36.80
2018-05-08T10:36:40.074Z,36.43
2018-05-08T10:40:42.558Z,36.14
2018-05-08T10:44:45.019Z,35.96
2018-05-08T10:48:47.490Z,34.60
2018-05-08T10:52:49.969Z,33.90
2018-05-08T10:56:52.454Z,34.11
2018-05-08T11:00:54.903Z,34.36
2018-05-08T11:04:57.418Z,35.18
2018-05-08T11:08:59.868Z,33.61
2018-05-08T11:13:02.318Z,33.56
2018-05-08T11:17:04.786Z,33.94
2018-05-08T11:21:07.264Z,33.04
2018-05-08T11:25:09.729Z,33.56
2018-05-08T11:29:12.215Z,33.64
2018-05-08T11:33:14.712Z,33.21
2018-05-08T11:37:17.202Z,32.45
2018-05-08T11:41:19.659Z,32.72
2018-05-08T11:45:22.150Z,32.66
2018-05-08T11:49:24.603Z,32.53
2018-05-08T11:53:27.084Z,32.06
2018-05-08T11:57:29.562Z,32.33
2018-05-08T12:01:32.048Z,31.52
2018-05-08T12:05:34.518Z,31.79
2018-05-08T12:09:36.989Z,31.45
2018-05-08T12:13:39.467Z,31.37
2018-05-08T12:17:41.944Z,30.46
2018-05-08T12:21:44.513Z,31.45
2018-05-08T12:25:46.923Z,32.27
2018-05-08T12:29:49.384Z,34.18
2018-05-08T12:33:51.870Z,32.92
2018-05-08T12:37:54.330Z,32.49
2018-05-08T12:41:56.824Z,33.66
2018-05-08T12:45:59.321Z,33.76
2018-05-08T12:50:01.783Z,32.53
2018-05-08T12:54:04.263Z,31.45
2018-05-08T12:58:06.735Z,32.29
2018-05-08T13:02:09.443Z,31.18
2018-05-08T13:06:11.964Z,30.75
2018-05-08T13:10:14.502Z,30.15
2018-05-08T13:14:17.050Z,32.41
2018-05-08T13:18:19.625Z,30.82
2018-05-08T13:22:22.024Z,31.62
2018-05-08T13:26:24.507Z,31.68
2018-05-08T13:30:27.986Z,30.86
2018-05-08T13:34:30.471Z,32.52
2018-05-08T13:38:32.962Z,31.96
2018-05-08T13:42:35.456Z,31.49
2018-05-08T13:46:37.941Z,32.27
2018-05-08T13:50:40.409Z,32.73
2018-05-08T13:54:42.889Z,31.36
2018-05-08T13:58:45.372Z,31.64
2018-05-08T14:02:47.860Z,31.81
2018-05-08T14:06:50.443Z,30.56
2018-05-08T14:10:52.815Z,30.61
2018-05-08T14:14:55.345Z,29.83
2018-05-08T14:18:57.805Z,30.30
2018-05-08T14:23:00.282Z,31.13
2018-05-08T14:27:02.775Z,34.62
2018-05-08T14:31:05.250Z,35.62
2018-05-08T14:35:07.733Z,36.25
2018-05-08T14:39:10.188Z,38.03
2018-05-08T14:43:12.661Z,40.72
2018-05-08T14:47:15.136Z,40.94
2018-05-08T14:51:17.607Z,41.06
2018-05-08T14:55:20.092Z,42.39
2018-05-08T14:59:22.556Z,42.15
2018-05-08T15:03:25.043Z,42.63
2018-05-08T15:07:27.483Z,44.22
2018-05-08T15:11:29.969Z,44.63
2018-05-08T15:15:32.454Z,44.44
2018-05-08T15:19:34.968Z,45.43
2018-05-08T15:23:37.419Z,45.15
2018-05-08T15:27:39.899Z,44.87
2018-05-08T15:31:42.421Z,44.92
2018-05-08T15:35:44.882Z,45.47
2018-05-08T15:39:47.368Z,45.07
2018-05-08T15:43:49.876Z,45.55
2018-05-08T15:47:52.364Z,43.86
2018-05-08T15:51:55.843Z,44.35
2018-05-08T15:55:58.313Z,44.16
2018-05-08T16:00:00.794Z,44.08
2018-05-08T16:04:03.281Z,44.99
2018-05-08T16:08:05.744Z,45.15
2018-05-08T16:12:08.244Z,46.12
2018-05-08T16:16:10.784Z,46.53
2018-05-08T16:20:14.223Z,48.25
2018-05-08T16:24:16.709Z,47.50
2018-05-08T16:28:19.309Z,48.38
2018-05-08T16:32:21.812Z,50.36
2018-05-08T16:36:24.292Z,49.94
2018-05-08T16:40:26.741Z,51.46
2018-05-08T16:44:29.223Z,51.97
2018-05-08T16:48:31.806Z,52.80
2018-05-08T16:52:34.207Z,54.59
2018-05-08T16:56:36.876Z,55.49
2018-05-08T17:00:39.360Z,56.38
2018-05-08T17:04:42.834Z,56.71
2018-05-08T17:08:45.320Z,57.16
2018-05-08T17:12:47.775Z,57.86
2018-05-08T17:16:50.260Z,58.52
2018-05-08T17:20:52.727Z,58.27
2018-05-08T17:24:55.215Z,58.38
2018-05-08T17:28:57.666Z,58.97
2018-05-08T17:33:00.152Z,58.91
2018-05-08T17:37:02.634Z,58.70
2018-05-08T17:41:05.131Z,58.82
2018-05-08T17:45:07.619Z,58.49
2018-05-08T17:49:10.079Z,58.44
2018-05-08T17:53:12.564Z,58.74
2018-05-08T17:57:15.027Z,59.48
2018-05-08T18:01:17.513Z,59.86
2018-05-08T18:05:20.000Z,59.92
2018-05-08T18:09:22.455Z,60.20
2018-05-08T18:13:24.934Z,60.57
2018-05-08T18:17:27.502Z,60.50
2018-05-08T18:21:29.885Z,60.75
2018-05-08T18:25:32.392Z,60.69
2018-05-08T18:29:34.868Z,60.94
2018-05-08T18:33:37.357Z,60.96
2018-05-08T18:37:39.904Z,61.06
2018-05-08T18:41:42.378Z,61.15
2018-05-08T18:45:44.865Z,61.32
2018-05-08T18:49:47.451Z,61.54
2018-05-08T18:53:49.852Z,61.96
2018-05-08T18:57:52.335Z,62.05
2018-05-08T19:01:54.835Z,62.08
2018-05-08T19:05:57.294Z,62.25
2018-05-08T19:09:59.779Z,62.20
2018-05-08T19:14:02.264Z,62.07
2018-05-08T19:18:04.752Z,62.23
2018-05-08T19:22:07.209Z,62.46
2018-05-08T19:26:09.741Z,62.84
2018-05-08T19:30:17.916Z,62.93
2018-05-08T19:34:20.424Z,62.65
2018-05-08T19:38:22.899Z,62.58
2018-05-08T19:42:25.359Z,62.79
2018-05-08T19:46:27.843Z,62.88
2018-05-08T19:50:30.567Z,62.90
2018-05-08T19:54:33.252Z,63.03
2018-05-08T19:58:37.015Z,62.95
2018-05-08T20:02:39.523Z,62.94
2018-05-08T20:06:42.034Z,62.97
2018-05-08T20:10:44.673Z,63.12
2018-05-08T20:14:47.410Z,63.27
2018-05-08T20:18:49.930Z,63.13
2018-05-08T20:22:53.191Z,63.28
2018-05-08T20:26:55.747Z,63.25
2018-05-08T20:30:58.333Z,63.44
2018-05-08T20:35:00.809Z,63.69
2018-05-08T20:39:03.294Z,63.90
2018-05-08T20:43:05.921Z,63.75
2018-05-08T20:47:08.444Z,63.77
2018-05-08T20:51:10.926Z,63.51
2018-05-08T20:55:13.409Z,63.47
2018-05-08T20:59:15.860Z,63.68
2018-05-08T21:03:18.344Z,63.69
2018-05-08T21:07:20.813Z,63.92
2018-05-08T21:11:27.132Z,63.98
2018-05-08T21:15:29.623Z,64.00
2018-05-08T21:19:34.020Z,64.11
2018-05-08T21:23:36.538Z,64.06
2018-05-08T21:27:44.647Z,63.99
2018-05-08T21:31:47.163Z,64.09
2018-05-08T21:35:49.647Z,64.09
2018-05-08T21:39:52.217Z,64.10
2018-05-08T21:43:54.640Z,63.93
2018-05-08T21:47:57.105Z,64.09
2018-05-08T21:51:59.686Z,64.15
2018-05-08T21:56:02.092Z,64.31
2018-05-08T22:00:04.651Z,64.31
2018-05-08T22:04:07.095Z,64.35
2018-05-08T22:08:09.573Z,64.48
2018-05-08T22:12:12.059Z,64.55
2018-05-08T22:16:14.537Z,64.74
2018-05-08T22:20:17.014Z,64.84
2018-05-08T22:24:19.513Z,64.75
2018-05-08T22:28:22.004Z,64.77
2018-05-08T22:32:24.488Z,65.07
2018-05-08T22:36:26.971Z,65.20
2018-05-08T22:40:29.483Z,65.61
2018-05-08T22:44:31.977Z,65.72
2018-05-08T22:48:34.451Z,66.03
2018-05-08T22:52:36.916Z,66.08
2018-05-08T22:56:39.620Z,66.32
2018-05-08T23:00:42.150Z,66.25
2018-05-08T23:04:44.595Z,66.19
2018-05-08T23:08:47.126Z,66.12
2018-05-08T23:12:49.559Z,66.16
2018-05-08T23:16:52.024Z,66.13
2018-05-08T23:20:54.507Z,65.96
2018-05-08T23:24:56.978Z,65.98
2018-05-08T23:28:59.443Z,65.93
2018-05-08T23:33:01.918Z,65.83
2018-05-08T23:37:04.362Z,65.82
2018-05-08T23:41:06.837Z,66.01
2018-05-08T23:45:09.294Z,65.88
2018-05-08T23:49:11.772Z,65.79
2018-05-08T23:53:14.246Z,65.84
2018-05-08T23:57:16.732Z,65.89
